sensor_id;sensor_type;location;lat;lon;timestamp;pressure;altitude;pressure_sealevel;temperature;humidity
7930;BME280;4010;42.698;23.124;2023-05-22T00:01:05;68397.19;;;-140.64;100.00
7930;BME280;4010;42.698;23.124;2023-05-22T00:03:32;65801.63;;;-140.64;100.00
7930;BME280;4010;42.698;23.124;2023-05-22T00:06:00;72814.16;;;-140.64;100.00
7930;BME280;4010;42.698;23.124;2023-05-22T00:08:27;90016.50;;;-140.64;100.00
7930;BME280;4010;42.698;23.124;2023-05-22T00:10:56;103892.72;;;-140.64;100.00
7930;BME280;4010;42.698;23.124;2023-05-22T00:13:22;114332.16;;;-140.64;100.00
7930;BME280;4010;42.698;23.124;2023-05-22T00:15:49;118349.16;;;-140.64;100.00
7930;BME280;4010;42.698;23.124;2023-05-22T00:18:15;118349.16;;;-140.64;100.00
7930;BME280;4010;42.698;23.124;2023-05-22T00:20:42;118349.16;;;-140.64;100.00
7930;BME280;4010;42.698;23.124;2023-05-22T00:23:11;118349.16;;;-140.64;100.00
7930;BME280;4010;42.698;23.124;2023-05-22T00:25:38;118349.16;;;-140.64;100.00
7930;BME280;4010;42.698;23.124;2023-05-22T00:28:06;118349.16;;;-140.64;100.00
7930;BME280;4010;42.698;23.124;2023-05-22T00:30:33;118349.16;;;-140.64;100.00
7930;BME280;4010;42.698;23.124;2023-05-22T00:33:00;114437.00;;;-140.64;100.00
7930;BME280;4010;42.698;23.124;2023-05-22T00:35:27;111771.75;;;-140.64;100.00
7930;BME280;4010;42.698;23.124;2023-05-22T00:37:54;106254.56;;;-140.64;100.00
7930;BME280;4010;42.698;23.124;2023-05-22T00:40:21;107567.41;;;-140.64;100.00
7930;BME280;4010;42.698;23.124;2023-05-22T00:42:48;106779.66;;;-140.64;100.00
7930;BME280;4010;42.698;23.124;2023-05-22T00:45:16;103892.72;;;-140.64;100.00
7930;BME280;4010;42.698;23.124;2023-05-22T00:47:42;104942.22;;;-140.64;100.00
7930;BME280;4010;42.698;23.124;2023-05-22T00:50:10;100484.00;;;-140.64;100.00
7930;BME280;4010;42.698;23.124;2023-05-22T00:52:40;97602.28;;;-140.64;100.00
7930;BME280;4010;42.698;23.124;2023-05-22T00:55:08;101532.47;;;-140.64;100.00
7930;BME280;4010;42.698;23.124;2023-05-22T00:57:37;93938.09;;;-140.64;100.00
7930;BME280;4010;42.698;23.124;2023-05-22T01:00:05;100221.91;;;-140.64;100.00
7930;BME280;4010;42.698;23.124;2023-05-22T01:02:36;95769.72;;;-140.64;100.00
7930;BME280;4010;42.698;23.124;2023-05-22T01:05:04;91584.59;;;-140.64;100.00
7930;BME280;4010;42.698;23.124;2023-05-22T01:07:32;77236.84;;;-140.64;100.00
7930;BME280;4010;42.698;23.124;2023-05-22T01:10:02;74374.47;;;-140.64;100.00
7930;BME280;4010;42.698;23.124;2023-05-22T01:12:32;75154.88;;;-140.64;100.00
7930;BME280;4010;42.698;23.124;2023-05-22T01:15:06;75675.25;;;-140.64;100.00
7930;BME280;4010;42.698;23.124;2023-05-22T01:17:41;76976.53;;;-140.64;100.00
7930;BME280;4010;42.698;23.124;2023-05-22T01:20:20;77497.19;;;-140.64;100.00
7930;BME280;4010;42.698;23.124;2023-05-22T01:29:09;81143.94;;;-140.64;100.00
7930;BME280;4010;42.698;23.124;2023-05-22T01:31:40;81143.94;;;-140.64;100.00
7930;BME280;4010;42.698;23.124;2023-05-22T01:34:10;80362.19;;;-140.64;100.00
7930;BME280;4010;42.698;23.124;2023-05-22T01:36:37;78538.72;;;-140.64;100.00
7930;BME280;4010;42.698;23.124;2023-05-22T01:39:05;75675.25;;;-140.64;100.00
7930;BME280;4010;42.698;23.124;2023-05-22T01:41:33;71774.38;;;-140.64;100.00
7930;BME280;4010;42.698;23.124;2023-05-22T01:44:01;67358.72;;;-140.64;100.00
7930;BME280;4010;42.698;23.124;2023-05-22T01:46:28;62948.81;;;-140.64;100.00
7930;BME280;4010;42.698;23.124;2023-05-22T01:48:57;60098.38;;;-140.64;100.00
7930;BME280;4010;42.698;23.124;2023-05-22T01:51:32;58285.69;;;-140.64;100.00
7930;BME280;4010;42.698;23.124;2023-05-22T01:54:06;58803.50;;;-140.64;100.00
7930;BME280;4010;42.698;23.124;2023-05-22T01:56:40;59580.34;;;-140.64;100.00
7930;BME280;4010;42.698;23.124;2023-05-22T01:59:13;59062.44;;;-140.64;100.00
7930;BME280;4010;42.698;23.124;2023-05-22T02:01:44;58544.59;;;-140.64;100.00
7930;BME280;4010;42.698;23.124;2023-05-22T02:04:12;57250.31;;;-140.64;100.00
7930;BME280;4010;42.698;23.124;2023-05-22T02:06:41;55956.53;;;-140.64;100.00
7930;BME280;4010;42.698;23.124;2023-05-22T02:09:09;52595.00;;;-140.64;100.00
7930;BME280;4010;42.698;23.124;2023-05-22T02:11:37;51044.66;;;-140.64;100.00
7930;BME280;4010;42.698;23.124;2023-05-22T02:14:05;49753.25;;;-140.64;100.00
7930;BME280;4010;42.698;23.124;2023-05-22T02:16:33;50011.50;;;-140.64;100.00
7930;BME280;4010;42.698;23.124;2023-05-22T02:19:00;50269.75;;;-140.64;100.00
7930;BME280;4010;42.698;23.124;2023-05-22T02:21:32;50786.34;;;-140.64;100.00
7930;BME280;4010;42.698;23.124;2023-05-22T02:23:59;51561.34;;;-140.64;100.00
7930;BME280;4010;42.698;23.124;2023-05-22T02:26:25;51819.75;;;-140.64;100.00
7930;BME280;4010;42.698;23.124;2023-05-22T02:28:52;49495.03;;;-140.64;100.00
7930;BME280;4010;42.698;23.124;2023-05-22T02:31:19;45624.03;;;-140.64;100.00
7930;BME280;4010;42.698;23.124;2023-05-22T02:33:45;42788.13;;;-140.64;100.00
7930;BME280;4010;42.698;23.124;2023-05-22T02:36:12;41242.28;;;-140.64;100.00
7930;BME280;4010;42.698;23.124;2023-05-22T02:38:40;42015.13;;;-140.64;100.00
7930;BME280;4010;42.698;23.124;2023-05-22T02:41:07;40469.63;;;-140.64;100.00
7930;BME280;4010;42.698;23.124;2023-05-22T02:43:34;38924.84;;;-140.64;100.00
7930;BME280;4010;42.698;23.124;2023-05-22T02:46:00;42272.78;;;-140.64;100.00
7930;BME280;4010;42.698;23.124;2023-05-22T02:48:27;42788.13;;;-140.64;100.00
7930;BME280;4010;42.698;23.124;2023-05-22T02:50:54;42788.13;;;-140.64;100.00
7930;BME280;4010;42.698;23.124;2023-05-22T02:53:21;40984.72;;;-140.64;100.00
7930;BME280;4010;42.698;23.124;2023-05-22T02:55:49;41242.28;;;-140.64;100.00
7930;BME280;4010;42.698;23.124;2023-05-22T02:58:17;43819.09;;;-140.64;100.00
7930;BME280;4010;42.698;23.124;2023-05-22T03:00:45;46397.88;;;-140.64;100.00
7930;BME280;4010;42.698;23.124;2023-05-22T03:03:12;48204.19;;;-140.64;100.00
7930;BME280;4010;42.698;23.124;2023-05-22T03:05:38;47688.00;;;-140.64;100.00
7930;BME280;4010;42.698;23.124;2023-05-22T03:08:05;47429.94;;;-140.64;100.00
7930;BME280;4010;42.698;23.124;2023-05-22T03:10:32;47946.09;;;-140.64;100.00
7930;BME280;4010;42.698;23.124;2023-05-22T03:13:00;47429.94;;;-140.64;100.00
7930;BME280;4010;42.698;23.124;2023-05-22T03:15:26;50786.34;;;-140.64;100.00
7930;BME280;4010;42.698;23.124;2023-05-22T03:17:53;49753.25;;;-140.64;100.00
7930;BME280;4010;42.698;23.124;2023-05-22T03:20:20;49495.03;;;-140.64;100.00
7930;BME280;4010;42.698;23.124;2023-05-22T03:22:46;47946.09;;;-140.64;100.00
7930;BME280;4010;42.698;23.124;2023-05-22T03:25:13;44334.69;;;-140.64;100.00
7930;BME280;4010;42.698;23.124;2023-05-22T03:27:40;43819.09;;;-140.64;100.00
7930;BME280;4010;42.698;23.124;2023-05-22T03:30:08;47171.91;;;-140.64;100.00
7930;BME280;4010;42.698;23.124;2023-05-22T03:32:35;33009.78;;;-140.64;100.00
7930;BME280;4010;42.698;23.124;2023-05-22T03:35:03;59321.38;;;-140.64;100.00
7930;BME280;4010;42.698;23.124;2023-05-22T03:37:31;89493.94;;;-140.64;100.00
7930;BME280;4010;42.698;23.124;2023-05-22T03:39:58;118349.16;;;-140.64;100.00
7930;BME280;4010;42.698;23.124;2023-05-22T03:42:25;118349.16;;;-140.64;100.00
7930;BME280;4010;42.698;23.124;2023-05-22T03:44:51;118349.16;;;-140.64;100.00
7930;BME280;4010;42.698;23.124;2023-05-22T03:47:20;118349.16;;;-140.64;100.00
7930;BME280;4010;42.698;23.124;2023-05-22T03:49:46;118349.16;;;-140.64;100.00
7930;BME280;4010;42.698;23.124;2023-05-22T03:52:13;118349.16;;;-140.64;100.00
7930;BME280;4010;42.698;23.124;2023-05-22T03:54:40;118349.16;;;-140.64;100.00
7930;BME280;4010;42.698;23.124;2023-05-22T03:57:06;118349.16;;;-140.64;100.00
7930;BME280;4010;42.698;23.124;2023-05-22T03:59:33;118349.16;;;-140.64;100.00
7930;BME280;4010;42.698;23.124;2023-05-22T04:02:00;118349.16;;;-140.64;100.00
7930;BME280;4010;42.698;23.124;2023-05-22T04:04:28;118349.16;;;-140.64;97.56
7930;BME280;4010;42.698;23.124;2023-05-22T04:06:54;118349.16;;;-140.64;92.88
7930;BME280;4010;42.698;23.124;2023-05-22T04:09:25;118349.16;;;-140.64;84.81
7930;BME280;4010;42.698;23.124;2023-05-22T04:11:52;118349.16;;;-140.64;77.28
7930;BME280;4010;42.698;23.124;2023-05-22T04:14:18;118349.16;;;-140.64;71.91
7930;BME280;4010;42.698;23.124;2023-05-22T04:16:45;118349.16;;;-140.64;67.94
7930;BME280;4010;42.698;23.124;2023-05-22T04:19:11;118349.16;;;-140.64;65.58
7930;BME280;4010;42.698;23.124;2023-05-22T04:21:39;118349.16;;;-140.64;58.95
7930;BME280;4010;42.698;23.124;2023-05-22T04:24:08;118349.16;;;-140.64;55.54
7930;BME280;4010;42.698;23.124;2023-05-22T04:26:35;118349.16;;;-140.64;54.02
7930;BME280;4010;42.698;23.124;2023-05-22T04:29:02;118349.16;;;-140.64;55.06
7930;BME280;4010;42.698;23.124;2023-05-22T04:31:30;118349.16;;;-140.64;56.49
7930;BME280;4010;42.698;23.124;2023-05-22T04:33:57;118349.16;;;-140.64;54.41
7930;BME280;4010;42.698;23.124;2023-05-22T04:36:24;118349.16;;;-140.64;56.51
7930;BME280;4010;42.698;23.124;2023-05-22T04:38:52;118349.16;;;-140.64;53.60
7930;BME280;4010;42.698;23.124;2023-05-22T04:41:19;118349.16;;;-140.64;53.43
7930;BME280;4010;42.698;23.124;2023-05-22T04:43:46;118349.16;;;-140.64;53.58
7930;BME280;4010;42.698;23.124;2023-05-22T04:46:13;118349.16;;;-140.64;54.08
7930;BME280;4010;42.698;23.124;2023-05-22T04:48:40;118349.16;;;-140.64;58.15
7930;BME280;4010;42.698;23.124;2023-05-22T04:51:07;118349.16;;;-140.64;62.18
7930;BME280;4010;42.698;23.124;2023-05-22T04:53:34;118349.16;;;-140.64;68.22
7930;BME280;4010;42.698;23.124;2023-05-22T04:56:05;118349.16;;;-140.64;70.11
7930;BME280;4010;42.698;23.124;2023-05-22T04:58:32;118349.16;;;-140.64;69.62
7930;BME280;4010;42.698;23.124;2023-05-22T05:00:59;118349.16;;;-140.64;73.56
7930;BME280;4010;42.698;23.124;2023-05-22T05:03:25;118349.16;;;-140.64;73.63
7930;BME280;4010;42.698;23.124;2023-05-22T05:05:52;118349.16;;;-140.64;78.53
7930;BME280;4010;42.698;23.124;2023-05-22T05:08:19;118349.16;;;-140.64;77.51
7930;BME280;4010;42.698;23.124;2023-05-22T05:10:46;118349.16;;;-140.64;69.99
7930;BME280;4010;42.698;23.124;2023-05-22T05:13:14;118349.16;;;-140.64;60.34
7930;BME280;4010;42.698;23.124;2023-05-22T05:15:41;118349.16;;;-140.64;48.22
7930;BME280;4010;42.698;23.124;2023-05-22T05:18:07;118349.16;;;-140.64;46.92
7930;BME280;4010;42.698;23.124;2023-05-22T05:20:34;118349.16;;;-140.64;47.38
7930;BME280;4010;42.698;23.124;2023-05-22T05:23:01;118349.16;;;-140.64;44.74
7930;BME280;4010;42.698;23.124;2023-05-22T05:25:28;118349.16;;;-140.64;41.97
7930;BME280;4010;42.698;23.124;2023-05-22T05:27:54;118349.16;;;-140.64;40.36
7930;BME280;4010;42.698;23.124;2023-05-22T05:30:23;118349.16;;;-140.64;39.44
7930;BME280;4010;42.698;23.124;2023-05-22T05:32:49;118349.16;;;-140.64;38.04
7930;BME280;4010;42.698;23.124;2023-05-22T05:35:16;118349.16;;;-140.64;38.24
7930;BME280;4010;42.698;23.124;2023-05-22T05:37:43;118349.16;;;-140.64;39.54
7930;BME280;4010;42.698;23.124;2023-05-22T05:40:10;118349.16;;;-140.64;38.81
7930;BME280;4010;42.698;23.124;2023-05-22T05:42:37;118349.16;;;-140.64;37.58
7930;BME280;4010;42.698;23.124;2023-05-22T05:45:04;118349.16;;;-140.64;37.56
7930;BME280;4010;42.698;23.124;2023-05-22T05:47:32;118349.16;;;-140.64;36.37
7930;BME280;4010;42.698;23.124;2023-05-22T05:49:59;118349.16;;;-140.64;39.02
7930;BME280;4010;42.698;23.124;2023-05-22T05:52:26;118349.16;;;-140.64;39.13
7930;BME280;4010;42.698;23.124;2023-05-22T05:54:56;118349.16;;;-140.64;40.39
7930;BME280;4010;42.698;23.124;2023-05-22T05:57:25;118349.16;;;-140.64;38.07
7930;BME280;4010;42.698;23.124;2023-05-22T05:59:51;118349.16;;;-140.64;38.89
7930;BME280;4010;42.698;23.124;2023-05-22T06:02:18;118349.16;;;-140.64;40.98
7930;BME280;4010;42.698;23.124;2023-05-22T06:04:46;118349.16;;;-140.64;40.20
7930;BME280;4010;42.698;23.124;2023-05-22T06:07:13;118349.16;;;-140.64;38.29
7930;BME280;4010;42.698;23.124;2023-05-22T06:09:40;118349.16;;;-140.64;38.70
7930;BME280;4010;42.698;23.124;2023-05-22T06:12:07;118349.16;;;-140.64;39.51
7930;BME280;4010;42.698;23.124;2023-05-22T06:14:36;118349.16;;;-140.64;39.37
7930;BME280;4010;42.698;23.124;2023-05-22T06:17:04;118349.16;;;-140.64;35.76
7930;BME280;4010;42.698;23.124;2023-05-22T06:19:33;118349.16;;;-140.64;37.51
7930;BME280;4010;42.698;23.124;2023-05-22T06:22:01;118349.16;;;-140.64;39.21
7930;BME280;4010;42.698;23.124;2023-05-22T06:24:27;118349.16;;;-140.64;37.84
7930;BME280;4010;42.698;23.124;2023-05-22T06:26:56;118349.16;;;-140.64;40.77
7930;BME280;4010;42.698;23.124;2023-05-22T06:29:22;118349.16;;;-140.64;47.55
7930;BME280;4010;42.698;23.124;2023-05-22T06:31:49;118349.16;;;-140.64;51.09
7930;BME280;4010;42.698;23.124;2023-05-22T06:34:16;118349.16;;;-140.64;55.34
7930;BME280;4010;42.698;23.124;2023-05-22T06:36:42;118349.16;;;-140.64;59.34
7930;BME280;4010;42.698;23.124;2023-05-22T06:39:11;118349.16;;;-140.64;64.35
7930;BME280;4010;42.698;23.124;2023-05-22T06:41:38;118349.16;;;-140.64;59.38
7930;BME280;4010;42.698;23.124;2023-05-22T06:44:04;118349.16;;;-140.64;60.30
7930;BME280;4010;42.698;23.124;2023-05-22T06:46:31;118349.16;;;-140.64;61.67
7930;BME280;4010;42.698;23.124;2023-05-22T06:48:58;118349.16;;;-140.64;63.90
7930;BME280;4010;42.698;23.124;2023-05-22T06:51:25;118349.16;;;-140.64;65.76
7930;BME280;4010;42.698;23.124;2023-05-22T06:53:51;118349.16;;;-140.64;67.91
7930;BME280;4010;42.698;23.124;2023-05-22T06:56:19;118349.16;;;-140.64;67.85
7930;BME280;4010;42.698;23.124;2023-05-22T06:58:47;118349.16;;;-140.64;68.34
7930;BME280;4010;42.698;23.124;2023-05-22T07:01:13;118349.16;;;-140.64;66.78
7930;BME280;4010;42.698;23.124;2023-05-22T07:03:40;118349.16;;;-140.64;67.01
7930;BME280;4010;42.698;23.124;2023-05-22T07:06:07;118349.16;;;-140.64;67.33
7930;BME280;4010;42.698;23.124;2023-05-22T07:08:33;118349.16;;;-140.64;72.68
7930;BME280;4010;42.698;23.124;2023-05-22T07:11:00;118349.16;;;-140.64;67.08
7930;BME280;4010;42.698;23.124;2023-05-22T07:13:32;118349.16;;;-140.64;64.15
7930;BME280;4010;42.698;23.124;2023-05-22T07:15:59;118349.16;;;-140.64;66.41
7930;BME280;4010;42.698;23.124;2023-05-22T07:18:26;118349.16;;;-140.64;61.13
7930;BME280;4010;42.698;23.124;2023-05-22T07:20:52;118349.16;;;-140.64;63.17
7930;BME280;4010;42.698;23.124;2023-05-22T07:23:19;118349.16;;;-140.64;57.71
7930;BME280;4010;42.698;23.124;2023-05-22T07:25:46;118349.16;;;-140.64;56.10
7930;BME280;4010;42.698;23.124;2023-05-22T07:28:12;118349.16;;;-140.64;59.13
7930;BME280;4010;42.698;23.124;2023-05-22T07:30:40;118349.16;;;-140.64;55.00
7930;BME280;4010;42.698;23.124;2023-05-22T07:33:07;118349.16;;;-140.64;56.51
7930;BME280;4010;42.698;23.124;2023-05-22T07:35:34;118349.16;;;-140.64;58.67
7930;BME280;4010;42.698;23.124;2023-05-22T07:38:01;118349.16;;;-140.64;62.07
7930;BME280;4010;42.698;23.124;2023-05-22T07:40:28;118349.16;;;-140.64;60.92
7930;BME280;4010;42.698;23.124;2023-05-22T07:42:55;118349.16;;;-140.64;59.63
7930;BME280;4010;42.698;23.124;2023-05-22T07:45:22;118349.16;;;-140.64;61.86
7930;BME280;4010;42.698;23.124;2023-05-22T07:47:50;118349.16;;;-140.64;63.30
7930;BME280;4010;42.698;23.124;2023-05-22T07:50:16;118349.16;;;-140.64;60.59
7930;BME280;4010;42.698;23.124;2023-05-22T07:52:43;118349.16;;;-140.64;62.98
7930;BME280;4010;42.698;23.124;2023-05-22T07:55:10;118349.16;;;-140.64;62.00
7930;BME280;4010;42.698;23.124;2023-05-22T07:57:37;118349.16;;;-140.64;66.28
7930;BME280;4010;42.698;23.124;2023-05-22T08:00:05;118349.16;;;-140.64;61.70
7930;BME280;4010;42.698;23.124;2023-05-22T08:02:37;118349.16;;;-140.64;60.22
7930;BME280;4010;42.698;23.124;2023-05-22T08:05:07;118349.16;;;-140.64;58.58
7930;BME280;4010;42.698;23.124;2023-05-22T08:07:34;118349.16;;;-140.64;55.52
7930;BME280;4010;42.698;23.124;2023-05-22T08:10:03;118349.16;;;-140.64;57.26
7930;BME280;4010;42.698;23.124;2023-05-22T08:12:30;118349.16;;;-140.64;60.38
7930;BME280;4010;42.698;23.124;2023-05-22T08:14:56;118349.16;;;-140.64;59.86
7930;BME280;4010;42.698;23.124;2023-05-22T08:17:23;118349.16;;;-140.64;58.14
7930;BME280;4010;42.698;23.124;2023-05-22T08:19:50;118349.16;;;-140.64;57.03
7930;BME280;4010;42.698;23.124;2023-05-22T08:22:18;118349.16;;;-140.64;59.71
7930;BME280;4010;42.698;23.124;2023-05-22T08:24:44;118349.16;;;-140.64;54.35
7930;BME280;4010;42.698;23.124;2023-05-22T08:27:11;118349.16;;;-140.64;56.50
7930;BME280;4010;42.698;23.124;2023-05-22T08:29:38;118349.16;;;-140.64;54.64
7930;BME280;4010;42.698;23.124;2023-05-22T08:32:05;118349.16;;;-140.64;56.81
7930;BME280;4010;42.698;23.124;2023-05-22T08:34:32;118349.16;;;-140.64;56.68
7930;BME280;4010;42.698;23.124;2023-05-22T08:36:59;118349.16;;;-140.64;56.39
7930;BME280;4010;42.698;23.124;2023-05-22T08:39:28;118349.16;;;-140.64;56.19
7930;BME280;4010;42.698;23.124;2023-05-22T08:41:55;118349.16;;;-140.64;55.54
7930;BME280;4010;42.698;23.124;2023-05-22T08:44:22;118349.16;;;-140.64;56.14
7930;BME280;4010;42.698;23.124;2023-05-22T08:46:50;118349.16;;;-140.64;54.33
7930;BME280;4010;42.698;23.124;2023-05-22T08:49:20;118349.16;;;-140.64;58.30
7930;BME280;4010;42.698;23.124;2023-05-22T08:51:47;118349.16;;;-140.64;59.70
7930;BME280;4010;42.698;23.124;2023-05-22T08:54:20;118349.16;;;-140.64;59.91
7930;BME280;4010;42.698;23.124;2023-05-22T08:56:49;118349.16;;;-140.64;59.25
7930;BME280;4010;42.698;23.124;2023-05-22T08:59:18;118349.16;;;-140.64;51.99
7930;BME280;4010;42.698;23.124;2023-05-22T09:01:45;118349.16;;;-140.64;47.67
7930;BME280;4010;42.698;23.124;2023-05-22T09:04:12;118349.16;;;-140.64;49.67
7930;BME280;4010;42.698;23.124;2023-05-22T09:06:39;118349.16;;;-140.64;53.59
7930;BME280;4010;42.698;23.124;2023-05-22T09:09:05;118349.16;;;-140.64;51.04
7930;BME280;4010;42.698;23.124;2023-05-22T09:11:32;118349.16;;;-140.64;51.77
7930;BME280;4010;42.698;23.124;2023-05-22T09:14:07;118349.16;;;-140.64;48.72
7930;BME280;4010;42.698;23.124;2023-05-22T09:16:43;118349.16;;;-140.64;50.32
7930;BME280;4010;42.698;23.124;2023-05-22T09:19:11;118349.16;;;-140.64;52.07
7930;BME280;4010;42.698;23.124;2023-05-22T09:21:38;118349.16;;;-140.64;56.45
7930;BME280;4010;42.698;23.124;2023-05-22T09:24:06;118349.16;;;-140.64;49.64
7930;BME280;4010;42.698;23.124;2023-05-22T09:26:33;118349.16;;;-140.64;51.94
7930;BME280;4010;42.698;23.124;2023-05-22T09:29:01;118349.16;;;-140.64;44.14
7930;BME280;4010;42.698;23.124;2023-05-22T09:31:29;118349.16;;;-140.64;46.10
7930;BME280;4010;42.698;23.124;2023-05-22T09:33:56;118349.16;;;-140.64;45.76
7930;BME280;4010;42.698;23.124;2023-05-22T09:36:29;118349.16;;;-140.64;48.13
7930;BME280;4010;42.698;23.124;2023-05-22T09:38:59;118349.16;;;-140.64;47.42
7930;BME280;4010;42.698;23.124;2023-05-22T09:41:26;118349.16;;;-140.64;46.86
7930;BME280;4010;42.698;23.124;2023-05-22T09:43:54;118349.16;;;-140.64;48.40
7930;BME280;4010;42.698;23.124;2023-05-22T09:46:21;118349.16;;;-140.64;49.50
7930;BME280;4010;42.698;23.124;2023-05-22T09:48:51;118349.16;;;-140.64;48.31
7930;BME280;4010;42.698;23.124;2023-05-22T09:51:20;118349.16;;;-140.64;47.37
7930;BME280;4010;42.698;23.124;2023-05-22T09:53:48;118349.16;;;-140.64;48.14
7930;BME280;4010;42.698;23.124;2023-05-22T09:56:17;118349.16;;;-140.64;46.03
7930;BME280;4010;42.698;23.124;2023-05-22T09:58:44;118349.16;;;-140.64;46.00
7930;BME280;4010;42.698;23.124;2023-05-22T10:01:12;118349.16;;;-140.64;46.92
7930;BME280;4010;42.698;23.124;2023-05-22T10:03:42;118349.16;;;-140.64;45.06
7930;BME280;4010;42.698;23.124;2023-05-22T10:06:11;118349.16;;;-140.64;45.79
7930;BME280;4010;42.698;23.124;2023-05-22T10:08:42;118349.16;;;-140.64;43.79
7930;BME280;4010;42.698;23.124;2023-05-22T10:11:10;118349.16;;;-140.64;48.42
7930;BME280;4010;42.698;23.124;2023-05-22T10:13:37;118349.16;;;-140.64;45.42
7930;BME280;4010;42.698;23.124;2023-05-22T10:16:06;118349.16;;;-140.64;45.22
7930;BME280;4010;42.698;23.124;2023-05-22T10:18:34;118349.16;;;-140.64;45.82
7930;BME280;4010;42.698;23.124;2023-05-22T10:21:01;118349.16;;;-140.64;47.00
7930;BME280;4010;42.698;23.124;2023-05-22T10:23:30;118349.16;;;-140.64;47.18
7930;BME280;4010;42.698;23.124;2023-05-22T10:25:57;118349.16;;;-140.64;48.87
7930;BME280;4010;42.698;23.124;2023-05-22T10:28:28;118349.16;;;-140.64;50.29
7930;BME280;4010;42.698;23.124;2023-05-22T10:31:01;118349.16;;;-140.64;47.78
7930;BME280;4010;42.698;23.124;2023-05-22T10:33:37;118349.16;;;-140.64;49.89
7930;BME280;4010;42.698;23.124;2023-05-22T10:36:07;118349.16;;;-140.64;49.37
7930;BME280;4010;42.698;23.124;2023-05-22T10:38:52;118349.16;;;-140.64;49.26
7930;BME280;4010;42.698;23.124;2023-05-22T10:41:21;118349.16;;;-140.64;51.28
7930;BME280;4010;42.698;23.124;2023-05-22T10:43:49;118349.16;;;-140.64;50.18
7930;BME280;4010;42.698;23.124;2023-05-22T10:46:16;118349.16;;;-140.64;48.94
7930;BME280;4010;42.698;23.124;2023-05-22T10:48:44;118349.16;;;-140.64;49.29
7930;BME280;4010;42.698;23.124;2023-05-22T10:51:12;118349.16;;;-140.64;50.12
7930;BME280;4010;42.698;23.124;2023-05-22T10:53:42;118349.16;;;-140.64;50.22
7930;BME280;4010;42.698;23.124;2023-05-22T10:56:11;118349.16;;;-140.64;50.51
7930;BME280;4010;42.698;23.124;2023-05-22T10:58:40;118349.16;;;-140.64;50.50
7930;BME280;4010;42.698;23.124;2023-05-22T11:01:09;118349.16;;;-140.64;52.48
7930;BME280;4010;42.698;23.124;2023-05-22T11:03:53;118349.16;;;-140.64;55.21
7930;BME280;4010;42.698;23.124;2023-05-22T11:06:39;118349.16;;;-140.64;62.38
7930;BME280;4010;42.698;23.124;2023-05-22T11:09:26;118349.16;;;-140.64;69.96
7930;BME280;4010;42.698;23.124;2023-05-22T11:12:13;118349.16;;;-140.64;82.52
7930;BME280;4010;42.698;23.124;2023-05-22T11:14:41;118349.16;;;-140.64;86.49
7930;BME280;4010;42.698;23.124;2023-05-22T11:17:11;118349.16;;;-140.64;84.93
7930;BME280;4010;42.698;23.124;2023-05-22T11:19:39;118349.16;;;-140.64;78.64
7930;BME280;4010;42.698;23.124;2023-05-22T11:22:06;118349.16;;;-140.64;80.38
7930;BME280;4010;42.698;23.124;2023-05-22T11:24:36;118349.16;;;-140.64;85.27
7930;BME280;4010;42.698;23.124;2023-05-22T11:27:04;118349.16;;;-140.64;86.83
7930;BME280;4010;42.698;23.124;2023-05-22T11:29:32;118349.16;;;-140.64;86.76
7930;BME280;4010;42.698;23.124;2023-05-22T11:31:59;118349.16;;;-140.64;89.35
7930;BME280;4010;42.698;23.124;2023-05-22T11:34:26;118349.16;;;-140.64;89.47
7930;BME280;4010;42.698;23.124;2023-05-22T11:36:56;118349.16;;;-140.64;84.81
7930;BME280;4010;42.698;23.124;2023-05-22T11:39:23;118349.16;;;-140.64;82.56
7930;BME280;4010;42.698;23.124;2023-05-22T11:41:52;118349.16;;;-140.64;83.08
7930;BME280;4010;42.698;23.124;2023-05-22T11:44:18;118349.16;;;-140.64;74.69
7930;BME280;4010;42.698;23.124;2023-05-22T11:46:45;118349.16;;;-140.64;68.95
7930;BME280;4010;42.698;23.124;2023-05-22T11:49:12;118349.16;;;-140.64;71.49
7930;BME280;4010;42.698;23.124;2023-05-22T11:51:39;118349.16;;;-140.64;67.11
7930;BME280;4010;42.698;23.124;2023-05-22T11:54:06;118349.16;;;-140.64;56.82
7930;BME280;4010;42.698;23.124;2023-05-22T11:56:33;118349.16;;;-140.64;59.82
7930;BME280;4010;42.698;23.124;2023-05-22T11:59:01;118349.16;;;-140.64;62.55
7930;BME280;4010;42.698;23.124;2023-05-22T12:01:28;118349.16;;;-140.64;70.92
7930;BME280;4010;42.698;23.124;2023-05-22T12:03:54;118349.16;;;-140.64;90.70
7930;BME280;4010;42.698;23.124;2023-05-22T12:06:21;118349.16;;;-140.64;95.63
7930;BME280;4010;42.698;23.124;2023-05-22T12:08:48;118349.16;;;-140.64;100.00
7930;BME280;4010;42.698;23.124;2023-05-22T12:11:15;118349.16;;;-140.64;100.00
7930;BME280;4010;42.698;23.124;2023-05-22T12:13:42;118349.16;;;-140.64;100.00
7930;BME280;4010;42.698;23.124;2023-05-22T12:16:20;118349.16;;;-140.64;100.00
7930;BME280;4010;42.698;23.124;2023-05-22T12:18:51;118349.16;;;-140.64;100.00
7930;BME280;4010;42.698;23.124;2023-05-22T12:21:18;118349.16;;;-140.64;100.00
7930;BME280;4010;42.698;23.124;2023-05-22T12:23:48;118349.16;;;-140.64;100.00
7930;BME280;4010;42.698;23.124;2023-05-22T12:26:15;118349.16;;;-140.64;100.00
7930;BME280;4010;42.698;23.124;2023-05-22T12:28:42;118349.16;;;-140.64;100.00
7930;BME280;4010;42.698;23.124;2023-05-22T12:31:09;118349.16;;;-140.64;100.00
7930;BME280;4010;42.698;23.124;2023-05-22T12:33:38;118349.16;;;-140.64;100.00
7930;BME280;4010;42.698;23.124;2023-05-22T12:36:06;118349.16;;;-140.64;100.00
7930;BME280;4010;42.698;23.124;2023-05-22T12:38:33;118349.16;;;-140.64;100.00
7930;BME280;4010;42.698;23.124;2023-05-22T12:41:02;118349.16;;;-140.64;100.00
7930;BME280;4010;42.698;23.124;2023-05-22T12:43:29;118349.16;;;-140.64;100.00
7930;BME280;4010;42.698;23.124;2023-05-22T12:45:56;118349.16;;;-140.64;100.00
7930;BME280;4010;42.698;23.124;2023-05-22T12:48:24;118349.16;;;-140.64;100.00